Time;durP1;ratioP1;P1;durP2;ratioP2;P2;SDS_P1;SDS_P2;PMS_P1;PMS_P2;Temp;Humidity;BMP_temperature;BMP_pressure;BME280_temperature;BME280_humidity;BME280_pressure;Samples;Min_cycle;Max_cycle;Signal;HPM_P1;HPM_P2
2022/03/03 00:00:42;;;;;;;7.95;4.43;;;;;;;2.40;43.00;99763.38;5341611;26;34160;-87
2022/03/03 00:03:11;;;;;;;10.27;6.00;;;;;;;2.44;43.14;99769.41;5335696;26;33610;-87
2022/03/03 00:05:40;;;;;;;10.30;5.90;;;;;;;2.34;43.39;99768.34;5335173;26;33592;-88
2022/03/03 00:08:08;;;;;;;12.60;6.25;;;;;;;2.33;43.61;99767.47;5315921;26;34018;-88
2022/03/03 00:10:37;;;;;;;8.98;5.18;;;;;;;2.34;43.97;99773.47;5335882;26;33547;-86
2022/03/03 00:13:06;;;;;;;9.93;5.12;;;;;;;2.44;43.40;99777.97;5341811;26;34121;-87
2022/03/03 00:15:35;;;;;;;7.62;4.18;;;;;;;2.33;43.86;99771.75;5335831;26;34323;-89
2022/03/03 00:18:05;;;;;;;8.38;5.05;;;;;;;2.44;43.58;99771.94;5336006;26;33485;-88
2022/03/03 00:20:34;;;;;;;9.07;4.65;;;;;;;2.31;44.06;99766.59;5335582;26;33785;-86
2022/03/03 00:23:03;;;;;;;9.65;4.90;;;;;;;2.29;43.89;99768.25;5336176;26;33660;-87
2022/03/03 00:25:33;;;;;;;7.03;4.43;;;;;;;2.35;43.79;99770.94;5340052;26;34495;-87
2022/03/03 00:28:04;;;;;;;6.95;4.87;;;;;;;2.17;44.27;99767.13;5341595;26;33442;-87
2022/03/03 00:30:33;;;;;;;6.93;4.53;;;;;;;2.26;44.04;99769.88;5334803;26;34408;-86
2022/03/03 00:33:02;;;;;;;6.80;4.57;;;;;;;2.39;43.68;99771.00;5335424;26;34002;-87
2022/03/03 00:35:32;;;;;;;9.73;5.05;;;;;;;2.23;44.03;99760.44;5335755;26;34362;-86
2022/03/03 00:38:01;;;;;;;10.07;5.12;;;;;;;2.37;43.57;99771.00;5335944;26;32792;-86
2022/03/03 00:40:30;;;;;;;7.07;4.80;;;;;;;2.29;43.51;99770.78;5341607;26;34409;-86
2022/03/03 00:42:59;;;;;;;9.95;5.00;;;;;;;2.04;44.08;99771.97;5335858;26;34248;-87
2022/03/03 00:45:28;;;;;;;8.30;4.95;;;;;;;2.38;43.54;99769.28;5315384;26;32763;-87
2022/03/03 00:47:56;;;;;;;8.15;5.18;;;;;;;2.15;44.22;99767.09;5338217;26;33636;-86
2022/03/03 00:50:25;;;;;;;8.75;6.43;;;;;;;2.37;43.72;99763.31;5335522;26;33960;-87
2022/03/03 00:52:55;;;;;;;11.65;5.93;;;;;;;2.24;44.10;99767.28;5341233;26;34005;-86
2022/03/03 00:55:24;;;;;;;10.30;5.03;;;;;;;2.34;43.68;99760.66;5335524;26;34261;-85
2022/03/03 00:57:53;;;;;;;16.75;6.07;;;;;;;2.16;44.37;99750.06;5335117;26;33509;-86
2022/03/03 01:00:22;;;;;;;9.05;4.28;;;;;;;2.22;43.96;99751.03;5335483;26;33746;-86
2022/03/03 01:02:52;;;;;;;11.55;5.05;;;;;;;2.08;44.28;99752.44;5335425;26;34679;-86
2022/03/03 01:05:22;;;;;;;8.80;4.62;;;;;;;2.07;44.36;99754.12;5341305;26;34469;-86
2022/03/03 01:07:51;;;;;;;10.18;5.28;;;;;;;2.07;44.33;99749.00;5339356;26;33203;-86
2022/03/03 01:10:21;;;;;;;10.30;4.85;;;;;;;2.23;44.31;99751.91;5335712;26;33510;-85
2022/03/03 01:12:50;;;;;;;10.60;5.28;;;;;;;2.08;44.47;99750.75;5335539;26;34052;-86
2022/03/03 01:15:18;;;;;;;8.98;4.55;;;;;;;2.11;44.56;99742.28;5335458;26;34585;-85
2022/03/03 01:17:47;;;;;;;5.65;4.65;;;;;;;2.09;44.43;99747.34;5335125;26;33105;-87
2022/03/03 01:20:16;;;;;;;7.78;5.40;;;;;;;1.99;45.12;99745.41;5341199;26;34677;-85
2022/03/03 01:22:45;;;;;;;9.57;5.80;;;;;;;1.90;45.43;99742.66;5334587;26;33680;-85
2022/03/03 01:25:13;;;;;;;10.20;4.70;;;;;;;1.94;45.16;99736.78;5335236;26;34505;-85
2022/03/03 01:27:45;;;;;;;7.22;4.60;;;;;;;2.04;44.84;99735.28;5335309;26;34113;-86
2022/03/03 01:30:14;;;;;;;;;;;;;;;1.84;45.29;99730.59;5335898;26;33947;-85
2022/03/03 01:32:42;;;;;;;10.57;6.00;;;;;;;1.82;45.54;99716.03;5340519;26;34178;-85
2022/03/03 01:35:11;;;;;;;13.77;5.35;;;;;;;2.14;44.61;99717.59;5335694;26;33775;-85
2022/03/03 01:37:40;;;;;;;8.07;4.60;;;;;;;1.86;44.90;99718.72;5335166;26;34192;-86
2022/03/03 01:40:10;;;;;;;11.12;5.62;;;;;;;1.87;45.07;99724.69;5335641;26;34452;-84
2022/03/03 01:42:39;;;;;;;7.40;4.68;;;;;;;1.92;44.71;99716.28;5335237;26;33262;-85
2022/03/03 01:45:10;;;;;;;9.50;5.40;;;;;;;2.13;44.30;99715.03;5341065;26;34027;-85
2022/03/03 01:47:39;;;;;;;8.52;4.40;;;;;;;1.88;44.73;99711.06;5335094;26;33863;-85
2022/03/03 01:50:08;;;;;;;7.62;4.78;;;;;;;1.74;45.06;99709.88;5335119;26;33788;-86
2022/03/03 01:52:37;;;;;;;8.32;4.85;;;;;;;1.61;45.41;99703.63;5335178;26;33969;-85
2022/03/03 01:55:07;;;;;;;8.82;4.65;;;;;;;1.67;45.31;99709.75;5335247;26;33605;-87
2022/03/03 01:57:36;;;;;;;7.63;5.20;;;;;;;1.81;45.40;99707.50;5335171;26;32702;-86
2022/03/03 02:00:07;;;;;;;14.45;6.68;;;;;;;1.88;45.11;99708.50;5340752;26;34473;-85
2022/03/03 02:02:40;;;;;;;8.13;4.93;;;;;;;1.86;45.38;99702.47;5335707;26;34421;-84
2022/03/03 02:05:09;;;;;;;8.65;4.50;;;;;;;1.91;45.42;99696.66;5335774;26;34030;-85
2022/03/03 02:07:38;;;;;;;9.00;5.37;;;;;;;1.92;45.49;99697.50;5336322;26;34250;-86
2022/03/03 02:10:07;;;;;;;8.48;4.85;;;;;;;1.98;45.30;99695.09;5334181;26;33610;-85
2022/03/03 02:12:36;;;;;;;11.68;5.60;;;;;;;1.86;45.57;99695.69;5342102;26;34534;-85
2022/03/03 02:15:06;;;;;;;8.13;5.20;;;;;;;1.86;45.49;99687.13;5316151;26;33088;-85
2022/03/03 02:17:35;;;;;;;13.02;6.20;;;;;;;1.86;45.48;99690.56;5316379;26;34446;-86
2022/03/03 02:20:19;;;;;;;10.00;5.07;;;;;;;1.51;46.66;99684.66;5335960;26;34607;-86
2022/03/03 02:22:48;;;;;;;11.77;5.18;;;;;;;1.51;46.77;99681.25;5336506;26;34386;-86
2022/03/03 02:25:17;;;;;;;9.27;5.40;;;;;;;1.39;47.16;99671.59;5336172;26;34535;-85
2022/03/03 02:27:46;;;;;;;10.93;5.45;;;;;;;1.49;46.98;99670.97;5342057;26;32717;-86
2022/03/03 02:30:17;;;;;;;13.55;6.22;;;;;;;1.68;46.90;99670.56;5336016;26;33863;-85
2022/03/03 02:32:47;;;;;;;9.75;5.47;;;;;;;1.87;46.63;99679.50;5315199;26;33650;-85
2022/03/03 02:35:17;;;;;;;9.07;5.00;;;;;;;1.63;46.97;99674.69;5336743;26;34804;-85
2022/03/03 02:37:47;;;;;;;8.57;4.80;;;;;;;1.61;47.07;99676.34;5335251;26;33246;-86
2022/03/03 02:40:20;;;;;;;12.18;5.32;;;;;;;1.83;46.71;99677.69;5341032;26;34305;-86
2022/03/03 02:42:51;;;;;;;8.18;4.90;;;;;;;1.67;46.98;99671.41;5334944;26;33985;-85
2022/03/03 02:45:21;;;;;;;13.63;4.90;;;;;;;1.43;47.68;99678.50;5335509;26;33840;-86
2022/03/03 02:47:51;;;;;;;8.40;4.78;;;;;;;1.62;47.26;99675.53;5336514;26;32938;-85
2022/03/03 02:50:24;;;;;;;9.20;5.07;;;;;;;1.76;47.00;99674.97;5340171;26;33673;-85
2022/03/03 02:52:53;;;;;;;8.60;4.62;;;;;;;1.65;47.27;99678.16;5342786;26;34774;-84
2022/03/03 02:55:22;;;;;;;9.80;5.93;;;;;;;1.59;46.91;99672.03;5337085;26;33976;-86
2022/03/03 02:57:56;;;;;;;10.82;5.45;;;;;;;1.15;48.13;99665.06;5317230;26;32561;-85
2022/03/03 03:00:27;;;;;;;12.90;5.68;;;;;;;1.44;47.63;99668.31;5336992;26;35235;-85
2022/03/03 03:02:56;;;;;;;9.63;5.10;;;;;;;1.56;47.19;99664.31;5337442;26;34603;-84
2022/03/03 03:05:27;;;;;;;12.02;5.72;;;;;;;1.52;47.22;99657.37;5343241;26;33894;-85
2022/03/03 03:07:56;;;;;;;9.95;6.07;;;;;;;1.20;47.88;99652.41;5337140;26;34279;-84
2022/03/03 03:10:24;;;;;;;11.68;5.57;;;;;;;1.40;47.41;99661.41;5337016;26;33811;-86
2022/03/03 03:12:53;;;;;;;8.57;4.80;;;;;;;1.49;47.21;99655.63;5314449;26;32327;-84
2022/03/03 03:15:22;;;;;;;7.37;4.55;;;;;;;1.26;47.50;99660.22;5336083;26;34020;-84
2022/03/03 03:17:52;;;;;;;10.30;6.57;;;;;;;1.40;47.18;99660.53;5342779;26;33342;-85
2022/03/03 03:20:21;;;;;;;9.73;5.35;;;;;;;1.45;47.12;99666.59;5337430;26;33577;-84
2022/03/03 03:22:51;;;;;;;10.35;5.80;;;;;;;1.45;47.42;99659.81;5337181;26;34445;-86
2022/03/03 03:25:20;;;;;;;7.10;4.18;;;;;;;1.25;48.06;99655.91;5337454;26;33558;-84
2022/03/03 03:27:50;;;;;;;10.75;5.12;;;;;;;1.25;48.17;99656.78;5336543;26;33384;-87
2022/03/03 03:30:19;;;;;;;11.95;5.10;;;;;;;1.29;48.30;99662.84;5337059;26;32715;-86
2022/03/03 03:32:48;;;;;;;7.87;5.03;;;;;;;1.36;48.08;99662.16;5342912;26;34731;-86
2022/03/03 03:35:17;;;;;;;10.27;5.82;;;;;;;1.31;48.27;99662.91;5316787;26;33636;-84
2022/03/03 03:37:46;;;;;;;9.50;5.93;;;;;;;1.17;48.63;99665.09;5337129;26;32943;-84
2022/03/03 03:40:16;;;;;;;12.85;5.35;;;;;;;1.03;49.24;99665.63;5337581;26;33654;-85
2022/03/03 03:42:46;;;;;;;9.52;5.20;;;;;;;1.10;49.13;99669.19;5316499;26;33739;-84
2022/03/03 03:45:16;;;;;;;10.68;5.12;;;;;;;1.19;49.02;99663.47;5342821;26;33563;-84
2022/03/03 03:47:45;;;;;;;9.20;5.68;;;;;;;1.26;48.61;99667.88;5337138;26;33378;-85
2022/03/03 03:50:14;;;;;;;9.70;5.20;;;;;;;1.22;48.60;99660.97;5336858;26;33566;-84
2022/03/03 03:52:44;;;;;;;10.40;5.40;;;;;;;1.16;48.60;99658.25;5336669;26;34047;-84
2022/03/03 03:55:13;;;;;;;11.38;4.95;;;;;;;1.23;48.44;99668.69;5337113;26;34437;-84
2022/03/03 03:57:43;;;;;;;6.68;4.18;;;;;;;1.08;48.87;99667.44;5322936;26;31914;-86
2022/03/03 04:00:14;;;;;;;9.23;5.63;;;;;;;1.06;48.69;99663.16;5336967;26;33608;-86
2022/03/03 04:02:44;;;;;;;8.95;5.65;;;;;;;1.20;48.55;99663.47;5336649;26;33908;-83
2022/03/03 04:05:14;;;;;;;11.55;4.60;;;;;;;1.21;48.23;99665.22;5337031;26;33612;-83
2022/03/03 04:07:43;;;;;;;12.65;5.00;;;;;;;1.18;48.28;99665.13;5337216;26;33078;-85
2022/03/03 04:10:12;;;;;;;8.57;5.80;;;;;;;1.04;48.58;99663.97;5337433;26;33647;-84
2022/03/03 04:12:42;;;;;;;9.88;5.55;;;;;;;0.68;49.66;99663.84;5343258;26;33797;-86
2022/03/03 04:15:14;;;;;;;6.87;5.32;;;;;;;0.78;49.78;99658.19;5336973;26;32983;-84
2022/03/03 04:17:43;;;;;;;8.30;4.37;;;;;;;0.77;49.44;99656.44;5336416;26;33219;-85
2022/03/03 04:20:12;;;;;;;9.52;5.32;;;;;;;0.90;49.27;99652.53;5336737;26;33995;-83
2022/03/03 04:22:42;;;;;;;13.18;5.72;;;;;;;0.79;49.61;99658.22;5336717;26;34822;-84
2022/03/03 04:25:11;;;;;;;9.50;5.47;;;;;;;0.78;49.56;99653.94;5341068;26;33902;-84
2022/03/03 04:27:40;;;;;;;8.68;5.12;;;;;;;0.71;49.96;99652.06;5336830;26;34122;-83
2022/03/03 04:30:11;;;;;;;7.75;5.25;;;;;;;0.56;50.19;99656.78;5336061;26;34665;-82
2022/03/03 04:32:41;;;;;;;8.88;4.85;;;;;;;0.55;50.18;99650.78;5337204;26;34681;-83
2022/03/03 04:35:10;;;;;;;9.23;6.03;;;;;;;0.40;50.62;99641.03;5336623;26;34631;-86
2022/03/03 04:37:39;;;;;;;9.75;4.78;;;;;;;0.56;50.25;99642.31;5342592;26;33577;-83
2022/03/03 04:40:11;;;;;;;7.50;4.80;;;;;;;0.50;50.37;99636.19;5341106;26;34500;-83
2022/03/03 04:42:39;;;;;;;7.37;4.95;;;;;;;0.54;50.17;99632.88;5336782;26;33512;-84
2022/03/03 04:45:11;;;;;;;9.93;5.93;;;;;;;0.41;50.66;99637.69;5335246;26;34023;-83
2022/03/03 04:47:40;;;;;;;7.85;5.30;;;;;;;0.44;50.75;99641.13;5336922;26;33947;-83
2022/03/03 04:50:10;;;;;;;8.90;6.32;;;;;;;0.47;50.71;99647.16;5336202;26;34720;-86
2022/03/03 04:52:39;;;;;;;8.75;5.75;;;;;;;0.16;51.48;99646.34;5343030;26;34068;-84
2022/03/03 04:55:08;;;;;;;7.87;5.00;;;;;;;0.41;50.91;99647.00;5336571;26;33901;-83
2022/03/03 04:57:37;;;;;;;9.90;5.78;;;;;;;0.42;50.89;99648.75;5336614;26;33455;-85
2022/03/03 05:00:08;;;;;;;11.63;6.18;;;;;;;0.38;50.87;99644.38;5336886;26;33425;-84
2022/03/03 05:02:41;;;;;;;9.10;5.65;;;;;;;0.37;50.99;99650.31;5337094;26;33910;-85
2022/03/03 05:05:10;;;;;;;10.93;6.43;;;;;;;0.50;50.89;99643.84;5342202;26;34052;-83
2022/03/03 05:07:39;;;;;;;9.63;5.45;;;;;;;0.15;51.71;99639.50;5337373;26;33048;-84
2022/03/03 05:10:09;;;;;;;10.02;6.37;;;;;;;0.31;51.48;99630.56;5336543;26;33786;-83
2022/03/03 05:12:37;;;;;;;11.90;6.07;;;;;;;0.26;51.64;99637.25;5336855;26;36251;-83
2022/03/03 05:15:08;;;;;;;9.07;5.65;;;;;;;0.26;51.65;99638.94;5336375;26;34650;-84
2022/03/03 05:17:38;;;;;;;6.97;5.00;;;;;;;0.19;51.70;99636.22;5338479;26;33847;-85
2022/03/03 05:20:08;;;;;;;9.80;6.70;;;;;;;0.21;51.85;99641.34;5341977;26;33017;-84
2022/03/03 05:22:37;;;;;;;14.38;7.30;;;;;;;0.36;51.59;99638.34;5337056;26;33834;-83
2022/03/03 05:25:06;;;;;;;10.02;6.85;;;;;;;0.24;52.14;99638.88;5338595;26;34538;-85
2022/03/03 05:27:35;;;;;;;8.85;6.03;;;;;;;0.25;51.95;99634.66;5316951;26;32179;-85
2022/03/03 05:30:05;;;;;;;10.98;6.70;;;;;;;0.27;51.85;99636.44;5336100;26;34292;-85
2022/03/03 05:32:35;;;;;;;12.05;7.07;;;;;;;0.28;51.92;99638.16;5342341;26;33018;-84
2022/03/03 05:35:07;;;;;;;9.32;5.90;;;;;;;0.38;51.62;99644.38;5336366;26;33712;-84
2022/03/03 05:37:35;;;;;;;8.23;5.90;;;;;;;0.27;51.91;99640.69;5337805;26;33052;-83
2022/03/03 05:40:05;;;;;;;12.82;7.25;;;;;;;0.17;52.28;99649.75;5337294;26;34634;-84
2022/03/03 05:42:35;;;;;;;10.77;6.43;;;;;;;0.13;52.42;99647.94;5338588;26;33106;-84
2022/03/03 05:45:05;;;;;;;11.93;6.40;;;;;;;0.47;51.56;99638.66;5342765;26;33999;-86
2022/03/03 05:47:35;;;;;;;13.88;8.13;;;;;;;0.41;51.78;99640.22;5336409;26;34178;-84
2022/03/03 05:50:09;;;;;;;17.15;8.13;;;;;;;0.35;52.03;99632.41;5336618;26;34097;-82
2022/03/03 05:52:37;;;;;;;14.30;7.07;;;;;;;0.29;52.36;99636.47;5336522;26;34666;-85
2022/03/03 05:55:10;;;;;;;20.12;7.60;;;;;;;0.33;52.26;99636.59;5336312;26;34585;-87
2022/03/03 05:57:42;;;;;;;19.85;8.13;;;;;;;0.27;52.46;99639.00;5337046;26;34048;-85
2022/03/03 06:00:13;;;;;;;9.93;6.18;;;;;;;0.52;51.71;99644.75;5342938;26;34330;-85
2022/03/03 06:02:46;;;;;;;11.35;6.68;;;;;;;0.38;52.32;99642.69;5337190;26;33856;-84
2022/03/03 06:05:18;;;;;;;9.43;5.93;;;;;;;0.57;51.93;99643.19;5336934;26;34578;-83
2022/03/03 06:07:52;;;;;;;10.32;6.53;;;;;;;0.45;52.27;99645.41;5336937;26;33362;-84
2022/03/03 06:10:23;;;;;;;11.60;6.95;;;;;;;0.63;51.87;99648.44;5337406;26;34020;-82
2022/03/03 06:12:54;;;;;;;;;;;;;;;0.74;51.50;99647.00;5337249;26;34685;-83
2022/03/03 06:15:23;;;;;;;10.35;6.10;;;;;;;0.78;51.40;99653.09;5343107;26;34321;-84
2022/03/03 06:17:53;;;;;;;11.85;7.05;;;;;;;0.72;51.85;99658.03;5336804;26;33487;-83
2022/03/03 06:20:24;;;;;;;12.13;6.45;;;;;;;0.60;51.94;99650.91;5337459;26;33566;-84
2022/03/03 06:22:53;;;;;;;11.27;6.43;;;;;;;0.70;51.84;99650.34;5337152;26;33823;-86
2022/03/03 06:25:22;;;;;;;12.07;6.62;;;;;;;0.81;51.62;99648.91;5336845;26;33477;-83
2022/03/03 06:27:51;;;;;;;10.52;5.22;;;;;;;0.85;51.45;99645.59;5342785;26;34052;-83
2022/03/03 06:30:19;;;;;;;11.73;6.78;;;;;;;1.04;51.08;99641.81;5335971;26;34481;-84
2022/03/03 06:32:48;;;;;;;10.88;8.30;;;;;;;1.20;50.87;99647.28;5336670;26;33994;-84
2022/03/03 06:35:17;;;;;;;11.32;6.68;;;;;;;1.26;50.24;99647.44;5336517;26;33730;-85
2022/03/03 06:37:47;;;;;;;10.77;5.82;;;;;;;1.22;50.23;99648.19;5336794;26;34959;-85
2022/03/03 06:40:16;;;;;;;12.70;5.78;;;;;;;1.46;49.48;99656.44;5322576;26;34175;-85
2022/03/03 06:42:45;;;;;;;12.00;6.25;;;;;;;1.59;48.94;99656.69;5335575;26;34168;-84
2022/03/03 06:45:18;;;;;;;8.40;5.18;;;;;;;1.53;49.17;99665.09;5334371;26;33325;-85
2022/03/03 06:47:48;;;;;;;12.20;6.55;;;;;;;1.15;50.23;99670.16;5334652;26;33730;-84
2022/03/03 06:50:17;;;;;;;16.47;7.73;;;;;;;1.47;49.69;99670.94;5335604;26;33875;-85
2022/03/03 06:52:48;;;;;;;8.90;5.87;;;;;;;1.39;49.60;99669.03;5336361;26;33639;-85
2022/03/03 06:55:20;;;;;;;13.40;7.35;;;;;;;1.53;49.36;99670.22;5342897;26;33090;-83
2022/03/03 06:57:51;;;;;;;8.75;6.80;;;;;;;1.37;49.86;99673.25;5334877;26;34171;-83
2022/03/03 07:00:21;;;;;;;10.80;6.70;;;;;;;1.49;49.64;99670.97;5334949;26;34178;-84
2022/03/03 07:02:51;;;;;;;11.77;6.95;;;;;;;1.32;50.35;99667.16;5334846;26;34749;-83
2022/03/03 07:05:21;;;;;;;11.23;6.85;;;;;;;1.38;50.28;99672.44;5335229;26;33478;-85
2022/03/03 07:07:52;;;;;;;11.60;6.32;;;;;;;1.44;50.11;99675.13;5342206;26;33118;-85
2022/03/03 07:10:23;;;;;;;;;;;;;;;1.43;50.51;99671.69;5336367;26;34508;-84
2022/03/03 07:12:53;;;;;;;9.57;5.75;;;;;;;1.79;49.62;99673.37;5337447;26;33904;-85
2022/03/03 07:15:23;;;;;;;7.37;5.47;;;;;;;1.71;50.13;99673.16;5316452;26;34820;-84
2022/03/03 07:17:53;;;;;;;9.98;6.30;;;;;;;1.81;49.67;99666.59;5337092;26;33255;-86
2022/03/03 07:20:28;;;;;;;10.07;5.65;;;;;;;2.04;49.00;99676.44;5317429;26;32366;-87
2022/03/03 07:23:02;;;;;;;10.52;6.32;;;;;;;2.29;48.35;99673.53;5341700;26;33770;-87
2022/03/03 07:25:39;;;;;;;9.35;5.78;;;;;;;1.93;49.53;99676.19;5337176;26;34063;-85
2022/03/03 07:28:10;;;;;;;9.27;5.68;;;;;;;2.07;50.00;99679.06;5337266;26;33469;-87
2022/03/03 07:30:41;;;;;;;10.40;6.07;;;;;;;2.26;49.33;99678.59;5337209;26;34520;-85
2022/03/03 07:33:15;;;;;;;9.45;6.57;;;;;;;1.71;50.81;99673.16;5336971;26;33914;-85
2022/03/03 07:35:44;;;;;;;9.02;5.22;;;;;;;2.39;49.76;99674.56;5336666;26;33736;-85
2022/03/03 07:38:19;;;;;;;9.13;6.15;;;;;;;2.58;49.40;99678.34;5342788;26;33491;-84
2022/03/03 07:40:50;;;;;;;10.00;6.25;;;;;;;2.02;50.93;99668.72;5336669;26;34535;-84
2022/03/03 07:43:21;;;;;;;12.20;6.03;;;;;;;2.09;51.59;99675.69;5336831;26;34003;-86
2022/03/03 07:45:50;;;;;;;10.13;6.72;;;;;;;1.89;52.24;99664.19;5336170;26;33823;-86
2022/03/03 07:48:23;;;;;;;12.27;6.18;;;;;;;2.35;51.45;99660.00;5337781;26;33241;-85
2022/03/03 07:50:52;;;;;;;10.95;6.45;;;;;;;2.70;50.46;99652.94;5342514;26;34015;-85
2022/03/03 07:53:22;;;;;;;10.75;6.30;;;;;;;2.90;49.76;99648.19;5338133;26;35497;-84
2022/03/03 07:55:55;;;;;;;8.93;5.68;;;;;;;2.51;50.59;99648.34;5338272;26;33904;-86
2022/03/03 07:58:28;;;;;;;10.95;5.87;;;;;;;3.09;49.49;99644.22;5335809;26;32953;-86
2022/03/03 08:01:00;;;;;;;9.80;6.20;;;;;;;3.17;48.86;99645.22;5337092;26;34444;-87
2022/03/03 08:03:31;;;;;;;10.02;6.53;;;;;;;3.30;48.79;99643.69;5336840;26;33976;-86
2022/03/03 08:06:00;;;;;;;11.05;5.90;;;;;;;2.99;49.68;99640.63;5341801;26;33692;-87
2022/03/03 08:08:31;;;;;;;8.75;5.18;;;;;;;3.44;48.69;99637.94;5336100;26;33572;-86
2022/03/03 08:11:04;;;;;;;11.38;6.55;;;;;;;3.68;47.47;99643.41;5316098;26;33087;-86
2022/03/03 08:13:33;;;;;;;11.52;6.12;;;;;;;3.58;48.35;99642.41;5337912;26;33572;-85
2022/03/03 08:16:03;;;;;;;9.15;6.18;;;;;;;3.25;49.14;99642.78;5336303;26;34640;-86
2022/03/03 08:18:36;;;;;;;8.95;5.53;;;;;;;3.78;48.00;99642.69;5341068;26;33633;-86
2022/03/03 08:21:07;;;;;;;10.23;6.05;;;;;;;4.22;46.66;99637.22;5341922;26;33805;-85
2022/03/03 08:23:37;;;;;;;8.98;5.30;;;;;;;4.37;46.13;99635.69;5335730;26;33407;-84
2022/03/03 08:26:06;;;;;;;8.75;4.10;;;;;;;4.50;45.90;99637.56;5336840;26;34397;-85
2022/03/03 08:28:35;;;;;;;7.37;4.75;;;;;;;4.75;45.55;99632.66;5336320;26;33301;-87
2022/03/03 08:31:05;;;;;;;8.25;4.82;;;;;;;4.58;45.22;99624.78;5336987;26;34009;-85
2022/03/03 08:33:41;;;;;;;8.10;4.82;;;;;;;4.57;45.66;99623.06;5341897;26;34123;-87
2022/03/03 08:36:18;;;;;;;7.53;5.03;;;;;;;5.04;44.99;99633.75;5336386;26;33559;-85
2022/03/03 08:38:51;;;;;;;9.32;5.57;;;;;;;5.17;44.63;99627.03;5336431;26;34173;-86
2022/03/03 08:41:22;;;;;;;7.50;3.95;;;;;;;5.50;43.56;99633.25;5335966;26;34025;-86
2022/03/03 08:43:58;;;;;;;6.85;4.45;;;;;;;5.36;43.98;99620.28;5335883;26;34803;-85
2022/03/03 08:46:27;;;;;;;7.80;5.55;;;;;;;5.27;44.26;99615.09;5336316;26;34308;-88
2022/03/03 08:48:57;;;;;;;6.70;3.92;;;;;;;5.54;43.46;99622.13;5342443;26;33124;-86
2022/03/03 08:51:26;;;;;;;8.88;4.65;;;;;;;5.63;43.26;99627.34;5336035;26;33447;-86
2022/03/03 08:53:57;;;;;;;6.62;3.70;;;;;;;5.65;43.24;99617.03;5336197;26;34467;-88
2022/03/03 08:56:26;;;;;;;14.82;4.87;;;;;;;5.80;42.56;99617.12;5336742;26;33306;-88
2022/03/03 08:58:55;;;;;;;6.70;4.12;;;;;;;5.81;42.58;99612.84;5336477;26;33256;-86
2022/03/03 09:01:24;;;;;;;7.65;4.28;;;;;;;5.48;43.34;99609.22;5342078;26;34676;-87
2022/03/03 09:03:53;;;;;;;7.32;4.07;;;;;;;5.56;43.03;99621.28;5336844;26;33941;-88
2022/03/03 09:06:22;;;;;;;7.60;3.67;;;;;;;5.81;42.38;99617.97;5335235;26;34810;-88
2022/03/03 09:08:51;;;;;;;6.32;4.68;;;;;;;5.76;42.17;99625.69;5336158;26;33448;-88
2022/03/03 09:11:21;;;;;;;5.55;3.92;;;;;;;5.52;42.84;99616.97;5316891;26;33049;-87
2022/03/03 09:13:50;;;;;;;6.75;4.18;;;;;;;6.06;42.29;99624.12;5337233;26;34030;-88
2022/03/03 09:16:19;;;;;;;5.68;3.50;;;;;;;6.00;42.95;99624.97;5343167;26;33972;-87
2022/03/03 09:18:48;;;;;;;5.57;4.22;;;;;;;6.02;42.38;99624.94;5337410;26;33952;-88
2022/03/03 09:21:17;;;;;;;7.35;4.35;;;;;;;6.36;41.30;99624.22;5337485;26;34424;-87
2022/03/03 09:23:45;;;;;;;8.07;4.97;;;;;;;6.46;41.40;99624.25;5336822;26;33902;-88
2022/03/03 09:26:14;;;;;;;8.80;6.47;;;;;;;6.65;41.14;99625.16;5330707;26;175833;-87
2022/03/03 09:28:45;;;;;;;6.55;4.20;;;;;;;6.56;41.25;99634.59;5343085;26;32630;-87
2022/03/03 09:31:14;;;;;;;9.27;5.65;;;;;;;6.70;41.28;99628.59;5317310;26;33394;-87
2022/03/03 09:33:43;;;;;;;7.32;4.93;;;;;;;6.70;40.97;99623.44;5336072;26;34374;-89
2022/03/03 09:36:11;;;;;;;9.88;5.53;;;;;;;6.67;41.51;99619.16;5336834;26;33566;-87
2022/03/03 09:38:40;;;;;;;8.95;4.62;;;;;;;6.83;41.36;99625.16;5318120;26;32696;-88
2022/03/03 09:41:17;;;;;;;6.82;4.22;;;;;;;6.67;40.96;99616.56;5339795;26;34932;-87
2022/03/03 09:43:47;;;;;;;8.55;4.68;;;;;;;6.90;40.38;99624.31;5316374;26;34134;-88
2022/03/03 09:46:16;;;;;;;8.53;4.50;;;;;;;7.13;40.56;99616.59;5315026;26;33120;-87
2022/03/03 09:48:45;;;;;;;5.65;4.10;;;;;;;6.98;40.31;99620.03;5335234;26;34318;-87
2022/03/03 09:51:14;;;;;;;7.15;3.55;;;;;;;7.13;39.61;99613.13;5335059;26;33615;-86
2022/03/03 09:53:49;;;;;;;5.15;3.40;;;;;;;7.26;39.94;99605.37;5334503;26;34721;-86
2022/03/03 09:56:18;;;;;;;7.05;5.20;;;;;;;7.40;39.22;99610.53;5340540;26;33081;-88
2022/03/03 09:58:48;;;;;;;5.18;3.40;;;;;;;6.96;39.27;99605.41;5315548;26;32500;-86
2022/03/03 10:01:18;;;;;;;5.47;3.53;;;;;;;7.20;39.20;99605.41;5337149;26;33131;-86
2022/03/03 10:03:48;;;;;;;5.90;3.20;;;;;;;7.24;39.21;99601.94;5335798;26;33138;-88
2022/03/03 10:06:22;;;;;;;7.62;4.68;;;;;;;7.38;38.86;99607.09;5336998;26;34218;-89
2022/03/03 10:08:52;;;;;;;5.28;3.40;;;;;;;7.56;38.08;99603.59;5342687;26;33298;-87
2022/03/03 10:11:20;;;;;;;6.37;4.35;;;;;;;7.52;37.86;99601.91;5336705;26;34219;-87
2022/03/03 10:13:53;;;;;;;6.53;4.43;;;;;;;7.59;38.21;99601.03;5336794;26;33994;-87
2022/03/03 10:16:24;;;;;;;6.90;4.95;;;;;;;7.34;38.95;99599.34;5336042;26;33165;-87
2022/03/03 10:19:01;;;;;;;7.93;4.60;;;;;;;7.10;39.34;99602.81;5331870;26;33113;-86
2022/03/03 10:21:30;;;;;;;6.18;4.03;;;;;;;7.15;39.66;99601.97;5333988;26;34626;-85
2022/03/03 10:24:15;;;;;;;6.12;4.12;;;;;;;7.38;38.91;99603.66;5340633;26;35307;-86
2022/03/03 10:26:48;;;;;;;8.52;5.32;;;;;;;7.57;38.40;99602.75;5341141;26;33071;-88
2022/03/03 10:29:21;;;;;;;5.78;3.83;;;;;;;7.57;38.91;99595.00;5334379;26;32867;-87
2022/03/03 10:31:51;;;;;;;7.78;4.47;;;;;;;7.58;38.84;99601.88;5333471;26;33679;-87
2022/03/03 10:34:20;;;;;;;8.95;4.32;;;;;;;7.68;38.42;99595.84;5333461;26;33969;-86
2022/03/03 10:37:00;;;;;;;6.15;4.00;;;;;;;8.02;37.46;99593.16;5335704;26;34041;-87
2022/03/03 10:39:39;;;;;;;9.88;5.03;;;;;;;7.96;38.02;99600.06;5340968;26;34020;-88
2022/03/03 10:42:16;;;;;;;5.07;3.58;;;;;;;7.83;38.13;99587.19;5342271;26;33988;-88
2022/03/03 10:44:46;;;;;;;6.62;3.97;;;;;;;8.15;37.16;99581.03;5336501;26;34667;-87
2022/03/03 10:47:16;;;;;;;3.50;2.80;;;;;;;8.32;36.64;99578.34;5315714;26;35680;-86
2022/03/03 10:49:47;;;;;;;8.43;4.45;;;;;;;7.93;37.55;99575.09;5335582;26;34141;-88
2022/03/03 10:52:17;;;;;;;9.40;5.32;;;;;;;8.44;36.44;99575.72;5335995;26;33324;-88
2022/03/03 10:54:53;;;;;;;7.12;4.90;;;;;;;7.99;37.54;99566.44;5341790;26;33098;-87
2022/03/03 10:57:38;;;;;;;4.97;3.60;;;;;;;8.17;37.08;99560.34;5341741;26;34408;-88
2022/03/03 11:00:11;;;;;;;8.75;4.53;;;;;;;8.15;37.71;99554.34;5336907;26;33721;-87
2022/03/03 11:02:43;;;;;;;6.32;4.22;;;;;;;7.41;38.60;99557.19;5339147;26;33978;-86
2022/03/03 11:05:12;;;;;;;;;;;;;;;7.93;38.08;99557.03;5336674;26;33479;-86
2022/03/03 11:07:41;;;;;;;;;;;;;;;8.51;37.03;99548.94;5337878;26;34589;-85
2022/03/03 11:10:10;;;;;;;;;;;;;;;8.67;36.18;99552.25;5343215;26;33427;-86
2022/03/03 11:12:39;;;;;;;;;;;;;;;8.54;36.40;99553.25;5336967;26;34713;-86
2022/03/03 11:15:09;;;;;;;;;;;;;;;8.78;36.32;99544.44;5338207;26;35049;-87
2022/03/03 11:17:38;;;;;;;;;;;;;;;8.83;36.56;99534.91;5336863;26;34023;-88
2022/03/03 11:20:07;;;;;;;;;;;;;;;8.73;36.43;99525.53;5337964;26;33834;-87
2022/03/03 11:22:36;;;;;;;;;;;;;;;9.18;35.90;99532.00;5338290;26;34232;-88
2022/03/03 11:25:05;;;;;;;;;;;;;;;9.37;35.42;99531.78;5343165;26;35109;-88
2022/03/03 11:27:34;;;;;;;;;;;;;;;9.45;35.18;99529.13;5337776;26;34111;-88
2022/03/03 11:30:14;;;;;;;;;;;;;;;9.54;35.32;99532.50;5336796;26;34576;-89
2022/03/03 11:32:43;;;;;;;;;;;;;;;9.31;35.06;99530.13;5337511;26;34743;-88
2022/03/03 11:35:12;;;;;;;;;;;;;;;9.26;35.09;99526.75;5335911;26;35175;-86
2022/03/03 11:37:42;;;;;;;;;;;;;;;9.88;34.46;99520.81;5343124;26;37838;-86
2022/03/03 11:40:11;;;;;;;;;;;;;;;10.13;33.81;99519.63;5338612;26;34292;-88
2022/03/03 11:42:40;;;;;;;;;;;;;;;10.25;33.34;99519.44;5337865;26;34014;-87
2022/03/03 11:45:20;;;;;;;;;;;;;;;9.99;33.67;99503.41;5337029;26;34270;-88
2022/03/03 11:47:50;;;;;;;;;;;;;;;9.54;34.04;99506.59;5337395;26;34267;-88
2022/03/03 11:50:20;;;;;;;;;;;;;;;9.75;33.96;99499.41;5337118;26;32867;-88
2022/03/03 11:52:51;;;;;;;;;;;;;;;9.76;33.59;99502.00;5343357;26;36185;-87
2022/03/03 11:55:25;;;;;;;;;;;;;;;9.37;34.42;99492.97;5315825;26;33433;-87
2022/03/03 11:57:53;;;;;;;;;;;;;;;9.93;34.38;99493.13;5336614;26;33449;-87